Time;durP1;ratioP1;P1;durP2;ratioP2;P2;SDS_P1;SDS_P2;PMS_P1;PMS_P2;Temp;Humidity;BMP_temperature;BMP_pressure;BME280_temperature;BME280_humidity;BME280_pressure;Samples;Min_cycle;Max_cycle;Signal;HPM_P1;HPM_P2
2023/03/14 00:00:50;;;;;;;62.85;8.90;;;;;;;;;;4974439;28;20050;-45
2023/03/14 00:03:17;;;;;;;55.60;8.38;;;;;;;;;;4976498;28;20450;-47
2023/03/14 00:05:43;;;;;;;40.97;7.35;;;;;;;;;;4979557;28;20038;-48
2023/03/14 00:08:09;;;;;;;50.58;8.38;;;;;;;;;;4979281;28;20046;-46
2023/03/14 00:10:37;;;;;;;33.75;7.03;;;;;;;;;;4979948;28;20045;-45
2023/03/14 00:13:03;;;;;;;63.40;8.65;;;;;;;;;;4979621;28;20046;-44
2023/03/14 00:15:31;;;;;;;69.25;9.68;;;;;;;;;;4982673;28;20057;-45
2023/03/14 00:17:58;;;;;;;53.20;8.95;;;;;;;;;;4981158;28;20077;-47
2023/03/14 00:20:25;;;;;;;35.30;6.72;;;;;;;;;;4969625;28;20047;-47
2023/03/14 00:22:51;;;;;;;61.25;9.45;;;;;;;;;;4981423;28;20065;-49
2023/03/14 00:25:18;;;;;;;34.05;7.45;;;;;;;;;;4979011;28;20451;-49
2023/03/14 00:27:44;;;;;;;47.00;8.10;;;;;;;;;;4979898;28;20035;-53
2023/03/14 00:30:12;;;;;;;49.55;9.02;;;;;;;;;;4981190;28;20138;-48
2023/03/14 00:32:38;;;;;;;44.90;8.52;;;;;;;;;;4985656;28;20039;-49
2023/03/14 00:35:07;;;;;;;34.08;7.00;;;;;;;;;;4976500;28;20047;-51
2023/03/14 00:37:34;;;;;;;55.55;9.35;;;;;;;;;;4982665;28;20038;-49
2023/03/14 00:40:00;;;;;;;47.90;8.38;;;;;;;;;;4980596;28;20520;-47
2023/03/14 00:42:27;;;;;;;39.20;7.45;;;;;;;;;;4979800;28;20035;-50
2023/03/14 00:44:53;;;;;;;53.17;8.82;;;;;;;;;;4979488;28;20046;-53
2023/03/14 00:47:20;;;;;;;35.00;7.88;;;;;;;;;;4972574;28;20039;-50
2023/03/14 00:49:46;;;;;;;55.92;9.05;;;;;;;;;;4978281;28;20118;-49
2023/03/14 00:52:13;;;;;;;38.33;7.60;;;;;;;;;;4979672;28;20061;-50
2023/03/14 00:54:39;;;;;;;27.67;6.35;;;;;;;;;;4976625;28;20038;-48
2023/03/14 00:57:06;;;;;;;37.33;7.30;;;;;;;;;;4978855;28;20058;-49
2023/03/14 00:59:32;;;;;;;40.47;8.60;;;;;;;;;;4979986;28;20034;-49
2023/03/14 01:01:59;;;;;;;38.03;7.80;;;;;;;;;;4978987;28;20066;-48
2023/03/14 01:04:27;;;;;;;62.30;9.10;;;;;;;;;;4978049;28;20043;-49
2023/03/14 01:06:54;;;;;;;63.00;8.70;;;;;;;;;;4980952;28;20169;-50
2023/03/14 01:09:20;;;;;;;33.60;6.80;;;;;;;;;;4981884;28;20043;-48
2023/03/14 01:11:47;;;;;;;34.92;7.25;;;;;;;;;;4983069;28;20042;-49
2023/03/14 01:14:13;;;;;;;55.58;8.77;;;;;;;;;;4981894;28;20061;-52
2023/03/14 01:16:40;;;;;;;30.63;6.68;;;;;;;;;;4982528;28;20053;-50
2023/03/14 01:19:07;;;;;;;60.88;9.00;;;;;;;;;;4981047;28;20058;-50
2023/03/14 01:21:34;;;;;;;44.78;8.20;;;;;;;;;;4980684;28;20035;-51
2023/03/14 01:24:01;;;;;;;51.22;8.23;;;;;;;;;;4980997;28;20054;-48
2023/03/14 01:26:29;;;;;;;59.45;9.73;;;;;;;;;;4979682;28;20047;-46
2023/03/14 01:28:57;;;;;;;74.15;9.38;;;;;;;;;;4969677;28;20219;-46
2023/03/14 01:31:24;;;;;;;45.60;7.57;;;;;;;;;;4982986;28;20129;-44
2023/03/14 01:33:51;;;;;;;42.45;7.22;;;;;;;;;;4977225;28;20209;-44
2023/03/14 01:36:17;;;;;;;36.88;7.00;;;;;;;;;;4985209;28;20145;-45
2023/03/14 01:38:45;;;;;;;30.08;6.90;;;;;;;;;;4981725;28;20078;-46
2023/03/14 01:41:19;;;;;;;31.30;6.13;;;;;;;;;;4979592;28;20038;-43
2023/03/14 01:43:47;;;;;;;68.57;9.15;;;;;;;;;;4978785;28;20126;-44
2023/03/14 01:46:28;;;;;;;44.95;7.22;;;;;;;;;;4981421;28;20093;-44
2023/03/14 01:48:55;;;;;;;62.67;8.82;;;;;;;;;;4962822;28;20046;-45
2023/03/14 01:51:35;;;;;;;41.55;7.13;;;;;;;;;;4980562;28;20050;-44
2023/03/14 01:54:05;;;;;;;29.63;6.28;;;;;;;;;;4995570;28;20065;-45
2023/03/14 01:56:32;;;;;;;79.15;9.50;;;;;;;;;;4987992;28;20200;-45
2023/03/14 01:59:00;;;;;;;34.03;6.80;;;;;;;;;;4983291;28;20038;-45
2023/03/14 02:01:28;;;;;;;53.85;8.02;;;;;;;;;;4981786;28;20100;-45
2023/03/14 02:03:56;;;;;;;72.15;9.40;;;;;;;;;;4981418;28;20055;-45
2023/03/14 02:06:28;;;;;;;36.13;7.47;;;;;;;;;;4976571;28;20043;-44
2023/03/14 02:08:59;;;;;;;47.60;8.02;;;;;;;;;;4976235;28;20621;-43
2023/03/14 02:11:30;;;;;;;33.00;7.22;;;;;;;;;;4983359;28;20050;-45
2023/03/14 02:14:26;;;;;;;75.25;10.48;;;;;;;;;;4979058;28;20046;-45
2023/03/14 02:17:11;;;;;;;48.70;9.18;;;;;;;;;;4978900;28;20050;-45
2023/03/14 02:19:55;;;;;;;53.55;8.90;;;;;;;;;;4975118;28;20065;-46
2023/03/14 02:22:33;;;;;;;32.22;6.70;;;;;;;;;;4982110;28;20101;-45
2023/03/14 02:25:04;;;;;;;68.40;9.63;;;;;;;;;;4980166;28;20046;-44
2023/03/14 02:27:30;;;;;;;56.28;8.25;;;;;;;;;;4977728;28;20050;-44
2023/03/14 02:30:01;;;;;;;46.15;8.05;;;;;;;;;;4982836;28;20049;-44
2023/03/14 02:32:30;;;;;;;36.17;8.25;;;;;;;;;;4979977;28;20042;-44
2023/03/14 02:34:58;;;;;;;97.18;11.63;;;;;;;;;;4978627;28;20057;-51
2023/03/14 02:37:28;;;;;;;66.75;9.80;;;;;;;;;;4972710;28;20057;-48
2023/03/14 02:39:55;;;;;;;64.80;8.98;;;;;;;;;;4979336;28;20058;-49
2023/03/14 02:42:21;;;;;;;32.75;6.60;;;;;;;;;;4976028;28;20046;-49
2023/03/14 02:44:50;;;;;;;43.10;7.75;;;;;;;;;;4976128;28;20050;-47
2023/03/14 02:47:18;;;;;;;47.45;7.72;;;;;;;;;;4981036;28;20038;-48
2023/03/14 02:49:44;;;;;;;44.40;7.15;;;;;;;;;;4979723;28;20041;-49
2023/03/14 02:52:11;;;;;;;53.10;8.32;;;;;;;;;;4978880;28;20811;-47
2023/03/14 02:54:37;;;;;;;29.60;6.15;;;;;;;;;;4977210;28;20047;-49
2023/03/14 02:57:04;;;;;;;56.53;7.95;;;;;;;;;;4983918;28;20046;-47
2023/03/14 02:59:30;;;;;;;53.33;7.53;;;;;;;;;;4979937;28;20049;-47
2023/03/14 03:02:04;;;;;;;31.60;6.45;;;;;;;;;;4979641;28;20046;-48
2023/03/14 03:04:31;;;;;;;48.88;6.68;;;;;;;;;;4987521;28;20049;-49
2023/03/14 03:06:57;;;;;;;67.70;8.98;;;;;;;;;;4977352;28;20085;-48
2023/03/14 03:09:24;;;;;;;31.00;6.30;;;;;;;;;;4982973;28;20042;-48
2023/03/14 03:11:51;;;;;;;39.20;6.60;;;;;;;;;;4978707;28;20796;-51
2023/03/14 03:14:21;;;;;;;54.20;7.45;;;;;;;;;;4960521;28;20714;-49
2023/03/14 03:16:48;;;;;;;24.73;5.43;;;;;;;;;;4979019;28;20053;-51
2023/03/14 03:19:15;;;;;;;53.50;7.78;;;;;;;;;;4979314;28;20089;-49
2023/03/14 03:21:42;;;;;;;53.35;7.35;;;;;;;;;;4976523;28;20134;-49
2023/03/14 03:24:11;;;;;;;32.63;6.22;;;;;;;;;;4979022;28;20046;-47
2023/03/14 03:26:37;;;;;;;22.98;5.43;;;;;;;;;;4977993;28;20038;-49
2023/03/14 03:29:06;;;;;;;65.40;8.82;;;;;;;;;;4966588;28;20476;-47
2023/03/14 03:31:33;;;;;;;31.02;6.38;;;;;;;;;;4987430;28;20619;-52
2023/03/14 03:33:59;;;;;;;54.38;8.65;;;;;;;;;;4979321;28;20058;-50
2023/03/14 03:36:27;;;;;;;81.10;9.48;;;;;;;;;;4977575;28;20539;-49
2023/03/14 03:38:53;;;;;;;36.85;6.85;;;;;;;;;;4972017;28;20137;-43
2023/03/14 03:41:20;;;;;;;30.48;5.85;;;;;;;;;;4979771;28;20037;-45
2023/03/14 03:43:48;;;;;;;54.47;7.50;;;;;;;;;;4975375;28;20050;-43
2023/03/14 03:46:15;;;;;;;35.28;6.25;;;;;;;;;;4979060;28;20126;-43
2023/03/14 03:48:43;;;;;;;30.30;6.70;;;;;;;;;;4979062;28;20038;-44
2023/03/14 03:51:13;;;;;;;78.22;8.60;;;;;;;;;;4977881;28;20146;-43
2023/03/14 03:53:40;;;;;;;36.17;5.80;;;;;;;;;;4984931;28;20042;-45
2023/03/14 03:56:10;;;;;;;36.95;6.57;;;;;;;;;;4987505;28;20049;-44
2023/03/14 03:58:38;;;;;;;42.50;6.80;;;;;;;;;;4974943;28;20081;-44
2023/03/14 04:01:06;;;;;;;62.88;7.97;;;;;;;;;;4975716;28;20049;-43
2023/03/14 04:03:33;;;;;;;41.15;6.25;;;;;;;;;;4973864;28;20074;-44
2023/03/14 04:06:01;;;;;;;29.83;5.63;;;;;;;;;;4979069;28;20042;-44
2023/03/14 04:08:29;;;;;;;32.75;6.25;;;;;;;;;;4979005;28;20043;-44
2023/03/14 04:10:57;;;;;;;40.50;6.15;;;;;;;;;;4977847;28;20097;-46
2023/03/14 04:13:37;;;;;;;62.22;7.93;;;;;;;;;;4973181;28;20101;-45
2023/03/14 04:16:09;;;;;;;53.00;8.18;;;;;;;;;;4980303;28;20053;-43
2023/03/14 04:18:36;;;;;;;25.08;5.28;;;;;;;;;;4978214;28;20160;-44
2023/03/14 04:21:03;;;;;;;41.70;7.00;;;;;;;;;;4982018;28;20133;-43
2023/03/14 04:23:39;;;;;;;54.65;7.30;;;;;;;;;;4972341;28;20039;-44
2023/03/14 04:26:05;;;;;;;66.80;8.05;;;;;;;;;;4979545;28;20046;-44
2023/03/14 04:28:32;;;;;;;61.13;8.18;;;;;;;;;;4980838;28;20703;-44
2023/03/14 04:30:58;;;;;;;75.95;8.88;;;;;;;;;;4978840;28;20043;-45
2023/03/14 04:33:27;;;;;;;35.55;6.85;;;;;;;;;;4980592;28;20039;-45
2023/03/14 04:35:55;;;;;;;59.00;7.55;;;;;;;;;;4975885;28;20507;-47
2023/03/14 04:38:23;;;;;;;112.32;11.32;;;;;;;;;;4973324;28;20046;-48
2023/03/14 04:40:51;;;;;;;55.97;7.53;;;;;;;;;;4973785;28;20042;-49
2023/03/14 04:43:20;;;;;;;37.80;6.03;;;;;;;;;;4982770;28;20565;-47
2023/03/14 04:45:51;;;;;;;65.53;8.60;;;;;;;;;;4979320;28;20046;-47
2023/03/14 04:48:18;;;;;;;46.35;7.05;;;;;;;;;;4982136;28;20054;-49
2023/03/14 04:50:46;;;;;;;55.13;8.10;;;;;;;;;;4982689;28;20042;-49
2023/03/14 04:53:13;;;;;;;60.33;8.18;;;;;;;;;;4985293;28;20047;-49
2023/03/14 04:55:42;;;;;;;34.00;5.70;;;;;;;;;;4981471;28;20108;-50
2023/03/14 04:58:09;;;;;;;49.95;7.22;;;;;;;;;;4981024;28;20411;-51
2023/03/14 05:00:35;;;;;;;43.38;6.43;;;;;;;;;;4982706;28;20053;-50
2023/03/14 05:03:25;;;;;;;43.75;6.28;;;;;;;;;;4939195;29;20071;-51
2023/03/14 05:06:05;;;;;;;29.00;5.35;;;;;;;;;;4944661;29;20048;-48
2023/03/14 05:08:38;;;;;;;;;;;;;;;;;;4920676;29;20044;-47
2023/03/14 05:11:21;;;;;;;38.10;5.93;;;;;;;;;;4939268;29;20398;-48
2023/03/14 05:14:06;;;;;;;72.63;8.40;;;;;;;;;;4938911;29;20058;-48
2023/03/14 05:16:33;;;;;;;34.75;5.60;;;;;;;;;;4941472;29;20445;-52
2023/03/14 05:19:09;;;;;;;49.85;7.38;;;;;;;;;;4941577;29;20571;-48
2023/03/14 05:21:44;;;;;;;46.17;6.80;;;;;;;;;;4940408;29;20048;-48
2023/03/14 05:24:25;;;;;;;48.22;6.95;;;;;;;;;;4940482;29;20044;-47
2023/03/14 05:27:10;;;;;;;46.13;6.63;;;;;;;;;;4939878;29;20058;-50
2023/03/14 05:29:47;;;;;;;56.97;7.22;;;;;;;;;;4941269;29;20048;-50
2023/03/14 05:32:32;;;;;;;33.70;5.30;;;;;;;;;;4940481;29;20140;-47
2023/03/14 05:35:17;;;;;;;61.40;8.63;;;;;;;;;;4939285;29;20598;-49
2023/03/14 05:38:10;;;;;;;50.50;6.93;;;;;;;;;;4922589;29;20144;-50
2023/03/14 05:40:46;;;;;;;30.15;5.88;;;;;;;;;;4940696;28;20125;-48
2023/03/14 05:43:35;;;;;;;53.75;7.10;;;;;;;;;;4967728;28;20050;-49
2023/03/14 05:46:30;;;;;;;58.22;8.88;;;;;;;;;;4973118;28;20057;-50
2023/03/14 05:49:16;;;;;;;58.35;7.57;;;;;;;;;;4979446;28;20074;-50
2023/03/14 05:52:03;;;;;;;117.55;12.02;;;;;;;;;;4960397;28;20055;-46
2023/03/14 05:54:54;;;;;;;56.75;7.05;;;;;;;;;;4960927;28;20050;-46
2023/03/14 05:57:50;;;;;;;61.22;7.60;;;;;;;;;;4963019;28;20095;-46
2023/03/14 06:00:52;;;;;;;51.28;6.28;;;;;;;;;;4897144;29;20064;-49
2023/03/14 06:03:32;;;;;;;52.42;7.13;;;;;;;;;;4889960;29;20477;-47
2023/03/14 06:05:59;;;;;;;54.53;6.90;;;;;;;;;;4886063;29;20498;-48
2023/03/14 06:08:26;;;;;;;37.13;6.07;;;;;;;;;;4900379;29;20044;-49
2023/03/14 06:10:53;;;;;;;55.90;7.25;;;;;;;;;;4886371;29;20045;-47
2023/03/14 06:13:24;;;;;;;41.83;6.65;;;;;;;;;;4884424;29;20087;-49
2023/03/14 06:15:51;;;;;;;48.05;6.20;;;;;;;;;;4898535;29;20075;-47
2023/03/14 06:18:18;;;;;;;59.33;7.88;;;;;;;;;;4922111;29;20052;-48
2023/03/14 06:20:44;;;;;;;25.10;4.75;;;;;;;;;;4920329;29;20058;-47
2023/03/14 06:23:19;;;;;;;32.90;6.55;;;;;;;;;;4919442;29;20115;-48
2023/03/14 06:25:46;;;;;;;55.38;6.68;;;;;;;;;;4909170;29;20071;-45
2023/03/14 06:28:12;;;;;;;93.05;9.40;;;;;;;;;;4923117;29;20231;-46
2023/03/14 06:30:39;;;;;;;20.85;4.18;;;;;;;;;;4916766;29;20040;-47
2023/03/14 06:33:08;;;;;;;55.28;6.97;;;;;;;;;;4921541;29;20648;-44
2023/03/14 06:35:34;;;;;;;33.67;5.40;;;;;;;;;;4964718;28;20585;-46
2023/03/14 06:38:01;;;;;;;47.22;6.75;;;;;;;;;;4983085;28;20042;-44
2023/03/14 06:40:28;;;;;;;63.60;7.38;;;;;;;;;;4980554;28;20073;-44
2023/03/14 06:43:10;;;;;;;74.50;8.53;;;;;;;;;;4976400;28;20120;-45
2023/03/14 06:45:39;;;;;;;55.65;7.13;;;;;;;;;;4976887;28;20496;-45
2023/03/14 06:48:06;;;;;;;30.02;5.10;;;;;;;;;;4978152;28;20043;-45
2023/03/14 06:50:39;;;;;;;27.45;4.88;;;;;;;;;;4979375;28;20073;-47
2023/03/14 06:53:06;;;;;;;58.80;7.20;;;;;;;;;;4986106;28;20129;-46
2023/03/14 06:55:36;;;;;;;52.53;7.00;;;;;;;;;;4979928;28;20039;-44
2023/03/14 06:58:02;;;;;;;47.58;6.47;;;;;;;;;;4978281;28;20046;-45
2023/03/14 07:00:31;;;;;;;33.45;5.22;;;;;;;;;;4977303;28;20042;-45
2023/03/14 07:02:58;;;;;;;49.35;6.25;;;;;;;;;;4982266;28;20047;-46
2023/03/14 07:05:31;;;;;;;29.83;5.22;;;;;;;;;;4977518;28;20038;-47
2023/03/14 07:07:57;;;;;;;44.92;6.05;;;;;;;;;;4979954;28;20048;-49
2023/03/14 07:10:24;;;;;;;83.05;9.07;;;;;;;;;;4991291;28;20122;-49
2023/03/14 07:12:52;;;;;;;40.58;6.45;;;;;;;;;;4981110;28;20108;-53
2023/03/14 07:15:20;;;;;;;80.30;9.13;;;;;;;;;;4983170;28;20089;-50
2023/03/14 07:17:51;;;;;;;46.55;6.53;;;;;;;;;;4975647;28;20051;-49
2023/03/14 07:20:20;;;;;;;51.25;7.00;;;;;;;;;;4975244;28;20056;-49
2023/03/14 07:22:49;;;;;;;34.13;6.82;;;;;;;;;;4983059;28;20039;-48
2023/03/14 07:25:19;;;;;;;54.83;7.75;;;;;;;;;;4980056;28;20092;-48
2023/03/14 07:27:47;;;;;;;52.30;7.47;;;;;;;;;;4979458;28;20612;-49
2023/03/14 07:30:14;;;;;;;42.80;6.20;;;;;;;;;;4976249;28;20042;-47
2023/03/14 07:32:40;;;;;;;43.60;7.03;;;;;;;;;;4973696;28;20459;-51
2023/03/14 07:35:08;;;;;;;58.88;8.15;;;;;;;;;;4982701;28;20655;-53
2023/03/14 07:37:37;;;;;;;36.85;6.35;;;;;;;;;;4977816;28;20068;-50
2023/03/14 07:40:07;;;;;;;36.30;6.32;;;;;;;;;;4978495;28;20073;-47
2023/03/14 07:42:35;;;;;;;44.28;6.35;;;;;;;;;;4975537;28;20050;-49
2023/03/14 07:45:14;;;;;;;38.47;6.22;;;;;;;;;;4976569;28;20142;-51
2023/03/14 07:47:40;;;;;;;55.83;7.72;;;;;;;;;;4978580;28;20061;-51
2023/03/14 07:50:07;;;;;;;38.80;6.45;;;;;;;;;;4978793;28;20035;-51
2023/03/14 07:52:33;;;;;;;30.80;5.15;;;;;;;;;;4980884;28;20092;-49
2023/03/14 07:55:00;;;;;;;78.22;8.25;;;;;;;;;;4978293;28;20057;-49
2023/03/14 07:57:26;;;;;;;31.77;5.13;;;;;;;;;;4978254;28;20046;-48
2023/03/14 07:59:53;;;;;;;52.60;6.40;;;;;;;;;;4982317;28;20050;-49
2023/03/14 08:02:22;;;;;;;39.88;5.97;;;;;;;;;;4979985;28;20495;-52
2023/03/14 08:04:49;;;;;;;26.10;5.07;;;;;;;;;;4980023;28;20519;-50
2023/03/14 08:07:15;;;;;;;42.50;6.03;;;;;;;;;;4979935;28;20852;-50
2023/03/14 08:09:42;;;;;;;48.60;7.90;;;;;;;;;;4979507;28;20092;-49
2023/03/14 08:12:08;;;;;;;61.13;7.30;;;;;;;;;;4977753;28;20574;-47
2023/03/14 08:14:35;;;;;;;16.92;4.40;;;;;;;;;;4981608;28;20472;-47
2023/03/14 08:17:01;;;;;;;53.30;6.28;;;;;;;;;;4981450;28;20403;-46
2023/03/14 08:19:28;;;;;;;66.13;7.97;;;;;;;;;;4984771;28;20046;-48
2023/03/14 08:21:54;;;;;;;34.08;5.45;;;;;;;;;;4986606;28;20054;-47
2023/03/14 08:24:21;;;;;;;26.38;5.07;;;;;;;;;;4983554;28;20051;-47
2023/03/14 08:26:47;;;;;;;52.33;6.75;;;;;;;;;;4983116;28;20046;-47
2023/03/14 08:29:14;;;;;;;48.85;6.57;;;;;;;;;;4977833;28;20103;-48
2023/03/14 08:31:40;;;;;;;48.60;6.82;;;;;;;;;;4981284;28;20049;-48
2023/03/14 08:34:07;;;;;;;66.00;8.13;;;;;;;;;;4982992;28;20410;-48
2023/03/14 08:36:33;;;;;;;29.85;4.63;;;;;;;;;;4984851;28;20109;-46
2023/03/14 08:39:00;;;;;;;37.03;5.32;;;;;;;;;;4983218;28;20042;-46
2023/03/14 08:41:27;;;;;;;38.90;5.57;;;;;;;;;;4981203;28;20039;-47
2023/03/14 08:43:53;;;;;;;29.17;5.07;;;;;;;;;;4987213;28;20403;-46
2023/03/14 08:46:20;;;;;;;52.05;6.43;;;;;;;;;;4981018;28;20057;-46
2023/03/14 08:48:47;;;;;;;50.90;6.45;;;;;;;;;;4982365;28;20488;-47
2023/03/14 08:51:13;;;;;;;43.67;5.93;;;;;;;;;;4982900;28;20049;-48
2023/03/14 08:53:41;;;;;;;30.55;4.70;;;;;;;;;;4978959;28;20066;-48
2023/03/14 08:56:09;;;;;;;56.80;6.00;;;;;;;;;;4986951;28;20483;-47
2023/03/14 08:58:37;;;;;;;32.60;4.70;;;;;;;;;;4982923;28;20100;-47
2023/03/14 09:01:13;;;;;;;69.43;7.68;;;;;;;;;;4981989;28;20077;-45
2023/03/14 09:03:39;;;;;;;47.80;6.63;;;;;;;;;;4981136;28;20077;-45
2023/03/14 09:06:07;;;;;;;19.75;4.32;;;;;;;;;;4982567;28;20038;-46
2023/03/14 09:08:34;;;;;;;33.47;5.55;;;;;;;;;;4984735;28;20069;-46
2023/03/14 09:11:06;;;;;;;37.90;8.55;;;;;;;;;;4983855;28;20085;-47
2023/03/14 09:13:32;;;;;;;118.00;11.95;;;;;;;;;;4981920;28;20068;-49
2023/03/14 09:15:59;;;;;;;45.00;6.03;;;;;;;;;;4977691;28;20053;-51
2023/03/14 09:18:25;;;;;;;27.88;4.57;;;;;;;;;;4979177;28;20047;-50
2023/03/14 09:20:52;;;;;;;37.45;5.50;;;;;;;;;;4984637;28;20047;-50
2023/03/14 09:23:18;;;;;;;64.38;8.05;;;;;;;;;;4983981;28;20046;-54
2023/03/14 09:25:45;;;;;;;38.22;6.00;;;;;;;;;;4982880;28;20088;-49
2023/03/14 09:28:12;;;;;;;52.00;6.07;;;;;;;;;;4980392;28;20125;-51
2023/03/14 09:30:39;;;;;;;33.78;5.13;;;;;;;;;;4979572;28;20046;-50
2023/03/14 09:33:05;;;;;;;63.80;7.32;;;;;;;;;;4980815;28;20070;-53
2023/03/14 09:35:33;;;;;;;29.85;5.63;;;;;;;;;;4981880;28;20046;-51
2023/03/14 09:37:59;;;;;;;30.95;5.03;;;;;;;;;;4982886;28;20046;-52
2023/03/14 09:40:30;;;;;;;59.85;6.85;;;;;;;;;;4982780;28;20440;-51
2023/03/14 09:42:58;;;;;;;36.85;5.50;;;;;;;;;;4977318;28;20436;-52
2023/03/14 09:45:26;;;;;;;58.42;7.45;;;;;;;;;;4984751;28;20496;-54
2023/03/14 09:47:53;;;;;;;44.95;6.57;;;;;;;;;;4979271;28;20034;-54
2023/03/14 09:50:26;;;;;;;32.55;5.00;;;;;;;;;;4980633;28;20097;-49
2023/03/14 09:52:56;;;;;;;64.93;7.53;;;;;;;;;;4981329;28;20404;-51
2023/03/14 09:55:22;;;;;;;51.00;6.55;;;;;;;;;;4982653;28;20040;-50
2023/03/14 09:57:50;;;;;;;44.55;6.03;;;;;;;;;;4981446;28;20055;-52
2023/03/14 10:00:25;;;;;;;62.65;7.22;;;;;;;;;;4981600;28;20042;-51
2023/03/14 10:02:56;;;;;;;31.02;5.10;;;;;;;;;;4981512;28;20400;-50
2023/03/14 10:05:24;;;;;;;54.92;6.20;;;;;;;;;;4982392;28;20045;-53
2023/03/14 10:07:51;;;;;;;54.50;6.40;;;;;;;;;;4981489;28;20038;-50
2023/03/14 10:10:21;;;;;;;54.67;6.88;;;;;;;;;;4978539;28;20047;-48
2023/03/14 10:12:54;;;;;;;49.28;6.10;;;;;;;;;;4980388;28;20521;-49
2023/03/14 10:15:30;;;;;;;29.80;4.68;;;;;;;;;;4979752;28;20061;-51
2023/03/14 10:17:58;;;;;;;43.33;5.72;;;;;;;;;;4975764;28;20057;-49
2023/03/14 10:20:32;;;;;;;39.53;5.65;;;;;;;;;;4982332;28;20051;-52
2023/03/14 10:23:03;;;;;;;50.70;6.32;;;;;;;;;;4979843;28;20042;-49
2023/03/14 10:25:31;;;;;;;62.25;7.07;;;;;;;;;;4980294;28;20088;-53
2023/03/14 10:27:58;;;;;;;32.53;5.20;;;;;;;;;;4972877;28;20495;-49
2023/03/14 10:30:30;;;;;;;30.05;4.43;;;;;;;;;;4985136;28;20138;-53
2023/03/14 10:32:57;;;;;;;56.78;6.22;;;;;;;;;;4977351;28;20049;-46
2023/03/14 10:35:23;;;;;;;25.83;4.22;;;;;;;;;;4982205;28;20549;-46
2023/03/14 10:37:55;;;;;;;39.67;5.57;;;;;;;;;;4981284;28;20050;-46
2023/03/14 10:40:28;;;;;;;46.15;6.80;;;;;;;;;;4981072;28;20041;-45
2023/03/14 10:42:55;;;;;;;35.47;5.03;;;;;;;;;;4982592;28;20039;-46
2023/03/14 10:45:30;;;;;;;56.97;6.43;;;;;;;;;;4981606;28;20100;-44
2023/03/14 10:47:58;;;;;;;37.70;5.40;;;;;;;;;;4979471;28;20077;-45
2023/03/14 10:50:29;;;;;;;46.15;5.82;;;;;;;;;;4979009;28;20476;-48
2023/03/14 10:52:56;;;;;;;69.45;7.60;;;;;;;;;;4984818;28;20038;-48
2023/03/14 10:55:38;;;;;;;40.37;5.27;;;;;;;;;;4978303;28;20583;-45
2023/03/14 10:58:05;;;;;;;67.57;7.32;;;;;;;;;;4981040;28;20046;-45
2023/03/14 11:00:33;;;;;;;39.35;5.45;;;;;;;;;;4979709;28;20507;-44
2023/03/14 11:03:11;;;;;;;32.22;5.07;;;;;;;;;;4977118;28;20126;-45
2023/03/14 11:05:43;;;;;;;34.95;5.20;;;;;;;;;;4981279;28;20216;-45
2023/03/14 11:08:28;;;;;;;32.28;4.53;;;;;;;;;;4980774;28;20050;-45
2023/03/14 11:11:02;;;;;;;30.83;4.28;;;;;;;;;;4980987;28;20484;-46
2023/03/14 11:13:32;;;;;;;43.53;4.82;;;;;;;;;;4977581;28;20399;-45
2023/03/14 11:16:06;;;;;;;72.05;7.03;;;;;;;;;;4974948;28;20055;-45
2023/03/14 11:18:33;;;;;;;55.97;6.65;;;;;;;;;;4978214;28;20046;-45
2023/03/14 11:21:06;;;;;;;33.35;4.70;;;;;;;;;;4978892;28;20055;-45
2023/03/14 11:23:44;;;;;;;34.03;4.97;;;;;;;;;;4977795;28;20050;-45
2023/03/14 11:26:20;;;;;;;39.83;5.65;;;;;;;;;;4976264;28;20035;-45
2023/03/14 11:28:56;;;;;;;35.72;4.85;;;;;;;;;;4981873;28;20038;-45
2023/03/14 11:31:33;;;;;;;50.88;5.63;;;;;;;;;;4978771;28;20045;-46
2023/03/14 11:34:15;;;;;;;114.07;10.00;;;;;;;;;;4976917;28;20125;-51
2023/03/14 11:37:02;;;;;;;49.35;5.82;;;;;;;;;;4973029;28;20042;-53
2023/03/14 11:39:38;;;;;;;50.47;5.88;;;;;;;;;;4887373;29;20080;-52
2023/03/14 11:42:09;;;;;;;42.13;5.25;;;;;;;;;;4882663;29;20059;-53
2023/03/14 11:44:37;;;;;;;35.67;4.60;;;;;;;;;;4880127;29;20136;-49
2023/03/14 11:47:07;;;;;;;31.08;4.53;;;;;;;;;;4882312;29;20442;-52
2023/03/14 11:49:48;;;;;;;74.70;7.72;;;;;;;;;;4875031;29;20050;-49
2023/03/14 11:52:20;;;;;;;56.25;6.30;;;;;;;;;;4867185;29;20850;-48
2023/03/14 11:54:49;;;;;;;63.90;6.72;;;;;;;;;;4882563;29;20078;-51
2023/03/14 11:57:17;;;;;;;36.40;5.07;;;;;;;;;;4883685;29;20049;-51
2023/03/14 12:00:09;;;;;;;38.38;5.22;;;;;;;;;;4879713;29;20100;-52
2023/03/14 12:02:47;;;;;;;28.10;4.68;;;;;;;;;;4884045;29;20060;-50
2023/03/14 12:05:30;;;;;;;34.47;4.75;;;;;;;;;;4881283;29;20048;-51
2023/03/14 12:08:08;;;;;;;38.80;5.50;;;;;;;;;;4882793;29;20056;-53
2023/03/14 12:10:45;;;;;;;51.05;6.25;;;;;;;;;;4881452;29;20048;-52
2023/03/14 12:13:12;;;;;;;81.20;9.20;;;;;;;;;;4881237;29;20072;-49
2023/03/14 12:15:40;;;;;;;49.08;6.07;;;;;;;;;;4891997;28;20052;-49
2023/03/14 12:18:18;;;;;;;69.78;7.68;;;;;;;;;;4977134;28;20070;-54
2023/03/14 12:20:53;;;;;;;49.05;5.47;;;;;;;;;;4973670;28;20047;-52
2023/03/14 12:23:20;;;;;;;56.15;6.13;;;;;;;;;;4979925;28;20043;-52
2023/03/14 12:25:46;;;;;;;49.92;6.15;;;;;;;;;;4980047;28;20503;-52
2023/03/14 12:28:18;;;;;;;49.30;6.35;;;;;;;;;;4981110;28;20047;-53
2023/03/14 12:30:45;;;;;;;46.58;5.80;;;;;;;;;;4980410;28;20118;-52
2023/03/14 12:33:20;;;;;;;45.80;6.20;;;;;;;;;;4978712;28;20038;-52
2023/03/14 12:35:51;;;;;;;51.10;6.45;;;;;;;;;;4979123;28;20407;-50
2023/03/14 12:38:30;;;;;;;53.47;7.28;;;;;;;;;;4980983;28;20039;-50
2023/03/14 12:41:03;;;;;;;34.22;5.28;;;;;;;;;;4975718;28;20038;-52
2023/03/14 12:43:30;;;;;;;46.00;6.32;;;;;;;;;;4979536;28;20598;-50
2023/03/14 12:46:07;;;;;;;43.60;6.25;;;;;;;;;;4978238;28;20418;-51
2023/03/14 12:48:34;;;;;;;72.38;7.40;;;;;;;;;;4969981;28;20066;-44
2023/03/14 12:51:05;;;;;;;41.15;5.45;;;;;;;;;;4979232;28;20419;-45
2023/03/14 12:53:56;;;;;;;29.95;4.80;;;;;;;;;;4978187;28;20487;-44
2023/03/14 12:56:41;;;;;;;33.42;4.90;;;;;;;;;;4975869;28;20047;-45
2023/03/14 12:59:14;;;;;;;51.63;6.47;;;;;;;;;;4974547;28;20035;-45
2023/03/14 13:02:07;;;;;;;43.17;5.93;;;;;;;;;;4981515;28;20039;-46
2023/03/14 13:04:34;;;;;;;;;;;;;;;;;;4976122;28;20130;-44
2023/03/14 13:07:10;;;;;;;53.35;6.45;;;;;;;;;;4981823;28;19974;-45
2023/03/14 13:09:50;;;;;;;63.28;7.63;;;;;;;;;;4980388;28;20054;-46
2023/03/14 13:12:18;;;;;;;46.42;6.63;;;;;;;;;;4987181;28;20105;-48
2023/03/14 13:14:46;;;;;;;36.08;5.63;;;;;;;;;;4982756;28;20196;-47
2023/03/14 13:17:14;;;;;;;38.75;6.40;;;;;;;;;;4982409;28;20068;-47
2023/03/14 13:20:04;;;;;;;61.22;7.55;;;;;;;;;;4976968;28;20055;-47
2023/03/14 13:22:32;;;;;;;42.25;6.60;;;;;;;;;;4983823;28;20553;-47
2023/03/14 13:25:00;;;;;;;41.85;7.18;;;;;;;;;;4977825;28;20038;-48
2023/03/14 13:27:29;;;;;;;63.25;8.88;;;;;;;;;;4983994;28;20569;-47
2023/03/14 13:29:56;;;;;;;45.03;9.25;;;;;;;;;;4984480;28;20042;-46
2023/03/14 13:32:26;;;;;;;55.60;8.50;;;;;;;;;;4980458;28;20066;-47
2023/03/14 13:34:59;;;;;;;70.03;10.18;;;;;;;;;;4981638;28;20051;-46
2023/03/14 13:37:26;;;;;;;55.92;8.77;;;;;;;;;;4982360;28;20084;-47
2023/03/14 13:39:55;;;;;;;47.10;7.88;;;;;;;;;;4981630;28;20046;-47
2023/03/14 13:42:25;;;;;;;32.67;6.68;;;;;;;;;;4982726;28;20406;-46
2023/03/14 13:44:53;;;;;;;33.90;6.57;;;;;;;;;;4981014;28;20043;-46
2023/03/14 13:47:21;;;;;;;79.88;9.73;;;;;;;;;;4984767;28;20039;-47
2023/03/14 13:49:48;;;;;;;63.40;9.88;;;;;;;;;;4976657;28;20043;-49
2023/03/14 13:52:28;;;;;;;56.30;9.20;;;;;;;;;;4983637;28;20042;-53
2023/03/14 13:54:55;;;;;;;45.55;8.18;;;;;;;;;;4980712;28;20082;-51
2023/03/14 13:57:22;;;;;;;30.38;7.65;;;;;;;;;;4982785;28;20047;-51
2023/03/14 13:59:58;;;;;;;60.75;10.15;;;;;;;;;;4982241;28;20074;-49
2023/03/14 14:02:25;;;;;;;50.58;9.57;;;;;;;;;;4978270;28;20051;-48
2023/03/14 14:04:52;;;;;;;44.92;9.48;;;;;;;;;;4982319;28;20505;-51
2023/03/14 14:07:18;;;;;;;79.38;11.60;;;;;;;;;;4979762;28;20054;-48
2023/03/14 14:09:49;;;;;;;53.35;9.80;;;;;;;;;;4982362;28;20042;-48
2023/03/14 14:12:18;;;;;;;47.97;9.10;;;;;;;;;;4983511;28;20042;-48
2023/03/14 14:14:57;;;;;;;46.58;8.98;;;;;;;;;;4979175;28;20041;-48
2023/03/14 14:17:26;;;;;;;39.58;8.35;;;;;;;;;;4977963;28;20462;-50
2023/03/14 14:19:53;;;;;;;62.33;10.07;;;;;;;;;;4976045;28;20500;-49
2023/03/14 14:22:20;;;;;;;56.28;10.43;;;;;;;;;;4981642;28;20063;-51
2023/03/14 14:24:47;;;;;;;43.85;8.80;;;;;;;;;;4982409;28;20053;-52
2023/03/14 14:27:20;;;;;;;47.47;9.30;;;;;;;;;;4981657;28;20117;-47
2023/03/14 14:29:56;;;;;;;55.75;10.43;;;;;;;;;;4976374;28;20049;-47
2023/03/14 14:32:23;;;;;;;44.20;10.15;;;;;;;;;;4985485;28;20073;-48
2023/03/14 14:34:52;;;;;;;61.60;10.68;;;;;;;;;;4978705;28;20443;-49
2023/03/14 14:37:23;;;;;;;72.93;12.55;;;;;;;;;;4980789;28;20893;-48
2023/03/14 14:39:54;;;;;;;66.10;12.27;;;;;;;;;;4979239;28;20440;-48
2023/03/14 14:42:24;;;;;;;34.63;11.05;;;;;;;;;;4979608;28;20062;-52
2023/03/14 14:44:51;;;;;;;73.15;14.32;;;;;;;;;;4982949;28;20487;-50
2023/03/14 14:47:19;;;;;;;67.28;13.15;;;;;;;;;;4981184;28;20100;-50